createdAt,value
2022-08-26T00:01:54.528Z,5.80
2022-08-26T00:04:25.163Z,4.95
2022-08-26T00:06:54.453Z,6.15
2022-08-26T00:09:22.870Z,8.10
2022-08-26T00:11:53.966Z,7.22
2022-08-26T00:14:22.894Z,7.18
2022-08-26T00:16:52.701Z,7.53
2022-08-26T00:19:22.484Z,8.77
2022-08-26T00:21:50.512Z,7.13
2022-08-26T00:24:20.943Z,5.65
2022-08-26T00:26:49.093Z,7.53
2022-08-26T00:29:17.421Z,8.55
2022-08-26T00:31:45.398Z,7.82
2022-08-26T00:34:14.214Z,11.70
2022-08-26T00:36:43.781Z,8.80
2022-08-26T00:39:11.402Z,7.10
2022-08-26T00:41:41.417Z,9.52
2022-08-26T00:44:11.140Z,8.57
2022-08-26T00:46:53.090Z,11.63
2022-08-26T00:49:42.178Z,8.02
2022-08-26T00:52:15.388Z,8.45
2022-08-26T00:54:51.655Z,7.20
2022-08-26T00:57:20.225Z,9.13
2022-08-26T00:59:56.834Z,7.75
2022-08-26T01:02:24.840Z,9.95
2022-08-26T01:04:59.114Z,7.90
2022-08-26T01:07:30.333Z,9.15
2022-08-26T01:10:00.688Z,7.35
2022-08-26T01:12:32.461Z,9.13
2022-08-26T01:15:00.691Z,6.35
2022-08-26T01:17:27.890Z,5.75
2022-08-26T01:20:19.365Z,7.07
2022-08-26T01:23:04.454Z,8.63
2022-08-26T01:25:34.232Z,11.57
2022-08-26T01:28:05.867Z,8.38
2022-08-26T01:30:35.525Z,7.53
2022-08-26T01:33:07.012Z,7.20
2022-08-26T01:35:34.554Z,10.00
2022-08-26T01:38:02.344Z,9.60
2022-08-26T01:40:33.798Z,6.57
2022-08-26T01:43:02.524Z,5.82
2022-08-26T01:45:33.302Z,6.82
2022-08-26T01:48:05.052Z,6.18
2022-08-26T01:50:35.023Z,6.55
2022-08-26T01:53:09.517Z,7.68
2022-08-26T01:55:41.333Z,8.55
2022-08-26T01:58:15.256Z,8.10
2022-08-26T02:00:44.118Z,8.73
2022-08-26T02:03:18.147Z,6.88
2022-08-26T02:05:51.498Z,6.10
2022-08-26T02:08:25.325Z,8.07
2022-08-26T02:10:54.739Z,9.02
2022-08-26T02:13:25.559Z,6.32
2022-08-26T02:15:53.983Z,7.43
2022-08-26T02:18:22.872Z,8.18
2022-08-26T02:20:52.482Z,8.23
2022-08-26T02:23:19.854Z,7.13
2022-08-26T02:25:56.939Z,6.43
2022-08-26T02:28:28.120Z,7.28
2022-08-26T02:30:55.854Z,5.95
2022-08-26T02:33:22.997Z,5.57
2022-08-26T02:35:50.196Z,5.40
2022-08-26T02:38:17.916Z,5.55
2022-08-26T02:40:45.254Z,4.68
2022-08-26T02:43:15.393Z,5.55
2022-08-26T02:45:43.009Z,5.93
2022-08-26T02:48:16.727Z,5.88
2022-08-26T02:50:46.235Z,7.18
2022-08-26T02:53:13.951Z,5.28
2022-08-26T02:55:41.942Z,4.63
2022-08-26T02:58:09.852Z,5.10
2022-08-26T03:00:38.753Z,6.60
2022-08-26T03:03:23.626Z,6.40
2022-08-26T03:05:51.917Z,5.13
2022-08-26T03:08:19.302Z,6.00
2022-08-26T03:10:47.673Z,6.63
2022-08-26T03:13:16.550Z,6.93
2022-08-26T03:15:44.661Z,5.22
2022-08-26T03:18:15.130Z,5.95
2022-08-26T03:20:42.334Z,5.78
2022-08-26T03:23:11.221Z,4.03
2022-08-26T03:25:38.702Z,5.47
2022-08-26T03:28:06.051Z,6.32
2022-08-26T03:30:45.209Z,5.30
2022-08-26T03:33:14.592Z,6.45
2022-08-26T03:35:44.316Z,5.45
2022-08-26T03:38:11.920Z,5.60
2022-08-26T03:40:39.977Z,4.55
2022-08-26T03:43:09.728Z,5.75
2022-08-26T03:45:38.430Z,5.10
2022-08-26T03:48:06.453Z,5.20
2022-08-26T03:50:35.697Z,5.70
2022-08-26T03:53:03.848Z,5.05
2022-08-26T03:55:33.230Z,5.70
2022-08-26T03:58:00.965Z,6.72
2022-08-26T04:00:29.040Z,5.80
2022-08-26T04:02:56.635Z,5.43
2022-08-26T04:05:24.403Z,6.30
2022-08-26T04:07:52.277Z,5.35
2022-08-26T04:10:29.115Z,5.63
2022-08-26T04:13:05.942Z,6.47
2022-08-26T04:15:33.148Z,6.03
2022-08-26T04:18:01.059Z,5.65
2022-08-26T04:20:28.589Z,6.20
2022-08-26T04:22:55.749Z,5.68
2022-08-26T04:25:24.151Z,5.35
2022-08-26T04:27:52.242Z,6.13
2022-08-26T04:30:20.163Z,5.97
2022-08-26T04:32:49.264Z,5.10
2022-08-26T04:35:16.565Z,6.22
2022-08-26T04:37:44.131Z,5.55
2022-08-26T04:40:12.090Z,6.10
2022-08-26T04:42:39.277Z,6.30
2022-08-26T04:45:10.166Z,8.38
2022-08-26T04:47:37.901Z,7.45
2022-08-26T04:50:07.483Z,7.38
2022-08-26T04:52:36.317Z,7.03
2022-08-26T04:55:06.602Z,6.57
2022-08-26T04:57:35.869Z,6.93
2022-08-26T05:00:06.831Z,6.25
2022-08-26T05:02:34.434Z,5.95
2022-08-26T05:05:01.864Z,6.53
2022-08-26T05:07:29.074Z,6.72
2022-08-26T05:09:56.368Z,6.80
2022-08-26T05:12:23.570Z,6.07
2022-08-26T05:14:50.988Z,5.40
2022-08-26T05:17:19.104Z,6.63
2022-08-26T05:19:46.515Z,7.78
2022-08-26T05:22:14.396Z,6.97
2022-08-26T05:24:43.304Z,8.68
2022-08-26T05:27:11.819Z,7.95
2022-08-26T05:29:40.597Z,7.95
2022-08-26T05:32:07.786Z,8.43
2022-08-26T05:34:35.210Z,10.95
2022-08-26T05:37:06.282Z,11.77
2022-08-26T05:39:34.146Z,22.45
2022-08-26T05:42:02.325Z,14.73
2022-08-26T05:44:29.527Z,13.32
2022-08-26T05:47:16.676Z,23.33
2022-08-26T05:49:45.198Z,9.88
2022-08-26T05:52:19.559Z,8.25
2022-08-26T05:54:47.665Z,8.35
2022-08-26T05:57:15.322Z,9.70
2022-08-26T05:59:42.651Z,8.50
2022-08-26T06:02:10.259Z,7.07
2022-08-26T06:04:37.453Z,7.13
2022-08-26T06:07:05.409Z,10.30
2022-08-26T06:09:37.301Z,10.13
2022-08-26T06:12:06.062Z,14.60
2022-08-26T06:14:33.347Z,9.45
2022-08-26T06:17:00.862Z,10.13
2022-08-26T06:19:32.967Z,10.10
2022-08-26T06:22:23.264Z,10.57
2022-08-26T06:25:09.212Z,16.33
2022-08-26T06:27:37.174Z,15.85
2022-08-26T06:30:04.739Z,9.88
2022-08-26T06:32:31.975Z,10.05
2022-08-26T06:34:59.323Z,12.40
2022-08-26T06:37:26.571Z,10.98
2022-08-26T06:39:53.762Z,10.75
2022-08-26T06:42:22.456Z,9.27
2022-08-26T06:44:50.352Z,9.20
2022-08-26T06:47:17.850Z,10.35
2022-08-26T06:49:45.082Z,13.88
2022-08-26T06:52:12.198Z,12.80
2022-08-26T06:54:44.256Z,13.48
2022-08-26T06:57:12.163Z,13.70
2022-08-26T06:59:39.484Z,9.93
2022-08-26T07:02:08.198Z,15.00
2022-08-26T07:04:35.874Z,12.38
2022-08-26T07:07:03.106Z,14.65
2022-08-26T07:09:33.154Z,13.40
2022-08-26T07:12:01.971Z,13.25
2022-08-26T07:14:31.847Z,12.35
2022-08-26T07:17:01.442Z,12.15
2022-08-26T07:19:31.052Z,13.18
2022-08-26T07:22:05.230Z,10.02
2022-08-26T07:24:40.332Z,12.93
2022-08-26T07:27:13.162Z,12.30
2022-08-26T07:29:40.968Z,15.95
2022-08-26T07:32:09.911Z,13.38
2022-08-26T07:34:38.560Z,15.20
2022-08-26T07:37:06.346Z,12.98
2022-08-26T07:39:36.356Z,13.38
2022-08-26T07:42:07.796Z,13.48
2022-08-26T07:44:37.174Z,12.60
2022-08-26T07:47:10.133Z,15.13
2022-08-26T07:49:38.295Z,13.70
2022-08-26T07:52:06.366Z,15.05
2022-08-26T07:54:33.537Z,15.70
2022-08-26T07:57:01.603Z,12.18
2022-08-26T07:59:35.684Z,12.27
2022-08-26T08:02:02.933Z,13.23
2022-08-26T08:04:30.488Z,12.48
2022-08-26T08:06:58.131Z,13.73
2022-08-26T08:09:26.271Z,11.15
2022-08-26T08:11:54.435Z,11.23
2022-08-26T08:14:22.116Z,8.93
2022-08-26T08:16:53.317Z,9.18
2022-08-26T08:19:29.904Z,11.73
2022-08-26T08:22:17.003Z,12.23
2022-08-26T08:24:45.317Z,8.75
2022-08-26T08:27:22.853Z,10.20
2022-08-26T08:29:54.340Z,8.00
2022-08-26T08:32:23.093Z,9.00
2022-08-26T08:34:50.459Z,8.40
2022-08-26T08:37:18.138Z,8.82
2022-08-26T08:39:45.554Z,7.40
2022-08-26T08:42:12.778Z,9.27
2022-08-26T08:44:52.016Z,8.00
2022-08-26T08:47:38.668Z,11.15
2022-08-26T08:50:28.629Z,8.82
2022-08-26T08:53:23.267Z,6.35
2022-08-26T08:56:24.391Z,5.68
2022-08-26T08:58:57.478Z,6.80
2022-08-26T09:02:00.913Z,4.70
2022-08-26T09:04:38.245Z,6.57
2022-08-26T09:07:10.084Z,6.90
2022-08-26T09:09:42.864Z,6.82
2022-08-26T09:12:15.813Z,6.03
2022-08-26T09:14:45.824Z,4.80
2022-08-26T09:17:25.072Z,6.72
2022-08-26T09:19:58.784Z,6.43
2022-08-26T09:22:35.133Z,2.97
2022-08-26T09:25:05.878Z,5.22
2022-08-26T09:27:50.314Z,5.53
2022-08-26T09:30:26.880Z,4.22
2022-08-26T09:33:10.944Z,5.40
2022-08-26T09:35:41.355Z,6.15
2022-08-26T09:38:22.793Z,4.57
2022-08-26T09:41:00.553Z,7.68
2022-08-26T09:43:29.068Z,2.92
2022-08-26T09:46:17.651Z,6.57
2022-08-26T09:48:45.390Z,5.93
2022-08-26T09:51:24.201Z,3.78
2022-08-26T09:53:57.883Z,7.72
2022-08-26T09:56:32.685Z,4.93
2022-08-26T09:59:01.311Z,5.43
2022-08-26T10:01:42.170Z,2.13
2022-08-26T10:04:21.765Z,3.75
2022-08-26T10:07:07.481Z,5.35
2022-08-26T10:09:39.922Z,5.25
2022-08-26T10:12:15.501Z,3.30
2022-08-26T10:14:50.404Z,6.07
2022-08-26T10:17:32.379Z,3.60
2022-08-26T10:20:24.831Z,7.95
2022-08-26T10:23:09.425Z,3.33
2022-08-26T10:25:53.509Z,6.97
2022-08-26T10:28:46.034Z,6.90
2022-08-26T10:31:13.122Z,3.42
2022-08-26T10:33:42.036Z,5.75
2022-08-26T10:36:42.891Z,7.00
2022-08-26T10:39:30.226Z,4.90
2022-08-26T10:42:13.001Z,2.33
2022-08-26T10:44:43.815Z,2.60
2022-08-26T10:47:20.821Z,4.78
2022-08-26T10:49:50.440Z,6.25
2022-08-26T10:52:39.443Z,3.05
2022-08-26T10:55:16.965Z,4.85
2022-08-26T10:58:26.459Z,2.03
2022-08-26T11:01:24.093Z,3.75
2022-08-26T11:04:00.527Z,4.28
2022-08-26T11:06:31.421Z,2.97
2022-08-26T11:09:01.562Z,2.80
2022-08-26T11:11:47.061Z,6.22
2022-08-26T11:14:29.077Z,2.72
2022-08-26T11:16:58.999Z,2.47
2022-08-26T11:19:59.507Z,2.88
2022-08-26T11:22:33.524Z,3.85
2022-08-26T11:25:13.108Z,5.22
2022-08-26T11:27:41.589Z,2.67
2022-08-26T11:30:28.920Z,4.35
2022-08-26T11:32:59.005Z,6.72
2022-08-26T11:35:26.869Z,2.53
2022-08-26T11:37:59.088Z,3.17
2022-08-26T11:40:38.630Z,4.55
2022-08-26T11:43:18.967Z,2.25
2022-08-26T11:45:48.877Z,7.18
2022-08-26T11:48:19.109Z,7.13
2022-08-26T11:51:26.683Z,4.00
2022-08-26T11:54:14.483Z,4.68
2022-08-26T11:56:46.756Z,7.18
2022-08-26T11:59:24.039Z,5.35
2022-08-26T12:01:54.034Z,4.63
2022-08-26T12:04:32.146Z,4.40
2022-08-26T12:07:01.782Z,3.88
2022-08-26T12:09:31.618Z,2.55
2022-08-26T12:12:24.632Z,7.00
2022-08-26T12:15:11.512Z,3.42
2022-08-26T12:17:40.759Z,3.63
2022-08-26T12:20:48.375Z,3.00
2022-08-26T12:23:22.896Z,3.40
2022-08-26T12:25:54.059Z,5.45
2022-08-26T12:28:23.205Z,2.50
2022-08-26T12:31:06.727Z,3.60
2022-08-26T12:33:36.458Z,3.30
2022-08-26T12:36:06.150Z,2.60
2022-08-26T12:38:36.945Z,2.15
2022-08-26T12:41:04.617Z,2.55
2022-08-26T12:43:42.486Z,3.20
2022-08-26T12:46:13.498Z,3.58
2022-08-26T12:48:44.297Z,4.03
2022-08-26T12:51:32.631Z,5.05
2022-08-26T12:54:00.532Z,3.13
2022-08-26T12:56:36.181Z,3.78
2022-08-26T12:59:18.448Z,5.45
2022-08-26T13:01:46.862Z,3.35
2022-08-26T13:04:44.005Z,2.10
2022-08-26T13:07:26.514Z,3.33
2022-08-26T13:12:30.182Z,3.10
2022-08-26T13:14:59.363Z,3.08
2022-08-26T13:17:28.063Z,4.22
2022-08-26T13:19:58.038Z,2.95
2022-08-26T13:22:29.606Z,3.83
2022-08-26T13:24:57.365Z,4.07
2022-08-26T13:27:27.333Z,2.50
2022-08-26T13:29:55.620Z,3.33
2022-08-26T13:32:23.801Z,5.88
2022-08-26T13:34:58.335Z,2.45
2022-08-26T13:37:35.009Z,3.60
2022-08-26T13:40:06.371Z,4.95
2022-08-26T13:42:34.435Z,8.15
2022-08-26T13:45:02.307Z,2.72
2022-08-26T13:47:31.058Z,3.05
2022-08-26T13:49:58.401Z,2.33
2022-08-26T13:52:30.312Z,3.38
2022-08-26T13:55:00.546Z,3.00
2022-08-26T13:57:30.336Z,4.15
2022-08-26T13:59:59.539Z,5.88
2022-08-26T14:02:27.801Z,3.10
2022-08-26T14:04:56.060Z,6.07
2022-08-26T14:07:23.847Z,3.50
2022-08-26T14:09:51.214Z,3.88
2022-08-26T14:12:18.470Z,4.70
2022-08-26T14:14:45.768Z,4.72
2022-08-26T14:17:19.385Z,5.13
2022-08-26T14:19:49.648Z,3.03
2022-08-26T14:22:19.930Z,5.18
2022-08-26T14:24:47.552Z,2.83
2022-08-26T14:27:15.078Z,4.97
2022-08-26T14:29:42.513Z,4.43
2022-08-26T14:32:15.189Z,3.00
2022-08-26T14:34:42.917Z,3.17
2022-08-26T14:37:13.535Z,3.17
2022-08-26T14:42:10.545Z,3.47
2022-08-26T14:44:38.218Z,2.15
2022-08-26T14:47:06.762Z,3.25
2022-08-26T14:49:34.283Z,3.22
2022-08-26T14:52:02.042Z,6.07
2022-08-26T14:54:29.656Z,4.72
2022-08-26T14:57:06.214Z,5.15
2022-08-26T14:59:36.826Z,2.78
2022-08-26T15:02:05.550Z,3.22
2022-08-26T15:04:33.153Z,2.47
2022-08-26T15:07:01.236Z,3.53
2022-08-26T15:09:29.755Z,3.10
2022-08-26T15:11:57.088Z,4.22
2022-08-26T15:14:27.589Z,3.33
2022-08-26T15:16:57.553Z,3.60
2022-08-26T15:19:26.656Z,3.53
2022-08-26T15:21:54.581Z,3.35
2022-08-26T15:24:25.255Z,3.30
2022-08-26T15:27:13.109Z,4.13
2022-08-26T15:29:40.586Z,4.22
2022-08-26T15:32:07.988Z,6.65
2022-08-26T15:34:35.970Z,3.33
2022-08-26T15:37:03.475Z,4.00
2022-08-26T15:39:30.883Z,5.70
2022-08-26T15:41:59.798Z,2.65
2022-08-26T15:44:27.718Z,2.85
2022-08-26T15:46:58.864Z,2.50
2022-08-26T15:49:26.653Z,2.93
2022-08-26T15:51:53.849Z,3.17
2022-08-26T15:54:23.247Z,2.33
2022-08-26T15:56:52.545Z,3.05
2022-08-26T15:59:21.731Z,4.07
2022-08-26T16:01:49.271Z,3.00
2022-08-26T16:04:17.647Z,4.57
2022-08-26T16:06:47.677Z,2.53
2022-08-26T16:09:14.956Z,6.07
2022-08-26T16:11:42.323Z,2.35
2022-08-26T16:14:09.550Z,2.65
2022-08-26T16:16:40.667Z,3.10
2022-08-26T16:19:08.450Z,5.35
2022-08-26T16:21:35.970Z,5.70
2022-08-26T16:24:04.461Z,3.17
2022-08-26T16:26:34.128Z,4.00
2022-08-26T16:29:02.652Z,5.38
2022-08-26T16:31:30.036Z,3.00
2022-08-26T16:33:57.297Z,1.48
2022-08-26T16:36:24.829Z,2.88
2022-08-26T16:38:55.332Z,2.33
2022-08-26T16:41:28.253Z,2.50
2022-08-26T16:43:56.278Z,4.47
2022-08-26T16:46:25.952Z,2.38
2022-08-26T16:48:54.725Z,4.60
2022-08-26T16:51:23.625Z,2.22
2022-08-26T16:53:51.983Z,3.13
2022-08-26T16:56:23.069Z,4.03
2022-08-26T16:59:00.801Z,2.33
2022-08-26T17:01:28.603Z,3.30
2022-08-26T17:03:55.861Z,4.05
2022-08-26T17:06:23.193Z,4.85
2022-08-26T17:08:50.484Z,2.67
2022-08-26T17:11:17.796Z,3.20
2022-08-26T17:13:44.997Z,3.83
2022-08-26T17:16:13.578Z,3.17
2022-08-26T17:18:41.253Z,2.00
2022-08-26T17:21:12.183Z,2.90
2022-08-26T17:23:41.057Z,1.70
2022-08-26T17:26:08.650Z,3.38
2022-08-26T17:28:36.067Z,4.03
2022-08-26T17:31:05.950Z,3.83
2022-08-26T17:33:33.189Z,3.83
2022-08-26T17:36:00.971Z,2.45
2022-08-26T17:38:29.315Z,3.35
2022-08-26T17:40:57.563Z,2.20
2022-08-26T17:43:26.830Z,2.50
2022-08-26T17:46:07.136Z,2.35
2022-08-26T17:48:36.237Z,3.40
2022-08-26T17:51:14.326Z,3.00
2022-08-26T17:53:42.371Z,4.57
2022-08-26T17:56:12.158Z,6.07
2022-08-26T17:58:40.724Z,3.47
2022-08-26T18:01:15.132Z,3.55
2022-08-26T18:03:42.431Z,3.38
2022-08-26T18:06:11.891Z,3.13
2022-08-26T18:08:39.567Z,6.13
2022-08-26T18:11:12.479Z,3.35
2022-08-26T18:13:46.076Z,3.50
2022-08-26T18:16:16.676Z,3.35
2022-08-26T18:18:45.007Z,2.47
2022-08-26T18:21:18.219Z,2.83
2022-08-26T18:23:46.543Z,4.32
2022-08-26T18:26:23.499Z,3.80
2022-08-26T18:28:50.883Z,5.97
2022-08-26T18:31:18.533Z,5.88
2022-08-26T18:33:46.137Z,2.42
2022-08-26T18:36:26.087Z,5.03
2022-08-26T18:38:54.320Z,4.15
2022-08-26T18:41:23.510Z,4.38
2022-08-26T18:43:53.140Z,3.95
2022-08-26T18:46:22.651Z,3.95
2022-08-26T18:48:50.863Z,2.88
2022-08-26T18:51:24.752Z,3.47
2022-08-26T18:53:52.778Z,4.07
2022-08-26T18:56:20.156Z,6.20
2022-08-26T18:58:47.847Z,3.92
2022-08-26T19:01:16.698Z,2.78
2022-08-26T19:03:44.191Z,4.10
2022-08-26T19:06:20.237Z,4.45
2022-08-26T19:08:49.761Z,4.80
2022-08-26T19:11:18.531Z,4.25
2022-08-26T19:14:01.307Z,5.53
2022-08-26T19:16:29.776Z,5.30
2022-08-26T19:18:58.473Z,4.93
2022-08-26T19:21:25.750Z,3.80
2022-08-26T19:23:57.236Z,6.93
2022-08-26T19:26:28.760Z,5.05
2022-08-26T19:28:56.388Z,4.47
2022-08-26T19:31:23.705Z,5.38
2022-08-26T19:33:50.907Z,3.17
2022-08-26T19:36:22.241Z,4.72
2022-08-26T19:38:50.221Z,8.37
2022-08-26T19:41:34.095Z,5.05
2022-08-26T19:44:36.790Z,4.70
2022-08-26T19:47:06.133Z,4.68
2022-08-26T19:49:33.498Z,5.82
2022-08-26T19:52:00.757Z,8.48
2022-08-26T19:54:28.684Z,4.47
2022-08-26T19:56:55.969Z,5.25
2022-08-26T19:59:23.183Z,4.13
2022-08-26T20:02:00.596Z,5.60
2022-08-26T20:04:32.615Z,3.92
2022-08-26T20:07:01.697Z,5.57
2022-08-26T20:09:34.075Z,4.28
2022-08-26T20:12:02.941Z,2.33
2022-08-26T20:14:30.291Z,3.22
2022-08-26T20:16:57.653Z,4.65
2022-08-26T20:19:44.117Z,5.22
2022-08-26T20:22:12.939Z,8.80
2022-08-26T20:24:40.741Z,3.58
2022-08-26T20:27:08.456Z,5.78
2022-08-26T20:29:36.609Z,5.20
2022-08-26T20:32:06.213Z,7.55
2022-08-26T20:34:39.885Z,4.95
2022-08-26T20:37:08.536Z,3.78
2022-08-26T20:39:35.908Z,5.25
2022-08-26T20:42:03.416Z,4.70
2022-08-26T20:44:30.623Z,5.20
2022-08-26T20:46:59.230Z,4.15
2022-08-26T20:49:27.799Z,4.60
2022-08-26T20:51:55.089Z,3.72
2022-08-26T20:54:28.170Z,3.65
2022-08-26T20:56:57.492Z,3.40
2022-08-26T20:59:25.414Z,3.08
2022-08-26T21:01:52.616Z,3.28
2022-08-26T21:04:22.910Z,3.35
2022-08-26T21:06:52.650Z,2.85
2022-08-26T21:09:23.452Z,3.13
2022-08-26T21:11:52.184Z,4.88
2022-08-26T21:14:20.710Z,3.70
2022-08-26T21:16:48.089Z,3.83
2022-08-26T21:19:18.151Z,4.25
2022-08-26T21:21:47.819Z,6.45
2022-08-26T21:24:15.607Z,4.70
2022-08-26T21:26:43.879Z,3.92
2022-08-26T21:29:13.562Z,4.18
2022-08-26T21:31:45.778Z,2.90
2022-08-26T21:34:19.149Z,3.25
2022-08-26T21:36:48.191Z,3.70
2022-08-26T21:39:15.835Z,3.28
2022-08-26T21:41:44.521Z,5.85
2022-08-26T21:44:15.682Z,4.82
2022-08-26T21:46:44.291Z,3.28
2022-08-26T21:49:13.556Z,6.47
2022-08-26T21:51:48.493Z,4.10
2022-08-26T21:54:18.945Z,5.05
2022-08-26T21:56:47.403Z,4.78
2022-08-26T21:59:17.268Z,3.35
2022-08-26T22:01:44.728Z,4.53
2022-08-26T22:04:12.076Z,3.50
2022-08-26T22:06:51.465Z,4.90
2022-08-26T22:09:24.420Z,4.25
2022-08-26T22:11:52.674Z,3.70
2022-08-26T22:14:30.198Z,4.70
2022-08-26T22:16:59.158Z,6.20
2022-08-26T22:19:26.558Z,2.35
2022-08-26T22:21:55.353Z,3.88
2022-08-26T22:24:24.785Z,3.55
2022-08-26T22:26:52.577Z,5.10
2022-08-26T22:29:20.830Z,6.22
2022-08-26T22:31:48.131Z,3.35
2022-08-26T22:34:17.422Z,3.13
2022-08-26T22:36:46.883Z,4.47
2022-08-26T22:39:16.229Z,4.60
2022-08-26T22:41:45.108Z,5.07
2022-08-26T22:44:12.451Z,5.63
2022-08-26T22:46:41.132Z,3.95
2022-08-26T22:49:10.684Z,3.42
2022-08-26T22:51:38.533Z,4.47
2022-08-26T22:54:06.666Z,5.57
2022-08-26T22:56:34.513Z,5.78
2022-08-26T22:59:01.825Z,3.75
2022-08-26T23:01:29.167Z,3.25
2022-08-26T23:03:56.367Z,4.00
2022-08-26T23:06:23.578Z,3.10
2022-08-26T23:08:50.808Z,2.53
2022-08-26T23:11:18.503Z,5.10
2022-08-26T23:13:45.770Z,4.20
2022-08-26T23:16:13.474Z,4.80
2022-08-26T23:18:41.466Z,4.72
2022-08-26T23:21:10.217Z,3.95
2022-08-26T23:23:38.445Z,4.22
2022-08-26T23:26:07.937Z,4.07
2022-08-26T23:28:36.753Z,4.75
2022-08-26T23:31:04.992Z,6.72
2022-08-26T23:33:50.679Z,6.55
2022-08-26T23:36:18.519Z,6.40
2022-08-26T23:38:52.968Z,4.05
2022-08-26T23:41:22.532Z,3.72
2022-08-26T23:43:50.658Z,4.70
2022-08-26T23:46:18.826Z,2.90
2022-08-26T23:48:46.714Z,5.10
2022-08-26T23:51:32.641Z,3.75
2022-08-26T23:53:59.995Z,4.75
2022-08-26T23:56:27.225Z,3.22
2022-08-26T23:58:55.211Z,3.85
